Time;durP1;ratioP1;P1;durP2;ratioP2;P2;SDS_P1;SDS_P2;PMS_P1;PMS_P2;Temp;Humidity;BMP_temperature;BMP_pressure;BME280_temperature;BME280_humidity;BME280_pressure;Samples;Min_cycle;Max_cycle;Signal;HPM_P1;HPM_P2
2023/04/30 00:00:22;;;;;;;13.75;8.77;;;10.30;8.30;;;;;;4996869;28;20106;-88
2023/04/30 00:03:12;;;;;;;13.25;8.68;;;10.20;1.00;;;;;;4989543;28;20457;-88
2023/04/30 00:05:59;;;;;;;11.38;8.25;;;10.30;1.00;;;;;;4983210;28;20117;-88
2023/04/30 00:08:47;;;;;;;13.05;8.38;;;10.20;8.90;;;;;;4997086;28;20046;-83
2023/04/30 00:11:34;;;;;;;16.85;8.65;;;10.20;1.20;;;;;;4981745;28;20190;-85
2023/04/30 00:14:21;;;;;;;14.30;8.02;;;10.30;12.90;;;;;;5012471;28;20042;-87
2023/04/30 00:17:10;;;;;;;10.95;8.45;;;10.30;1.00;;;;;;5006636;28;20046;-90
2023/04/30 00:20:00;;;;;;;15.63;7.82;;;10.30;1.00;;;;;;5001273;28;20453;-89
2023/04/30 00:22:49;;;;;;;12.60;8.48;;;10.20;1.00;;;;;;4998022;28;20042;-87
2023/04/30 00:25:36;;;;;;;10.90;7.97;;;10.20;1.00;;;;;;4987192;28;20057;-87
2023/04/30 00:28:24;;;;;;;12.38;8.68;;;10.20;1.00;;;;;;5003069;28;20065;-87
2023/04/30 00:31:11;;;;;;;10.68;8.27;;;10.20;1.00;;;;;;4992510;28;20046;-89
2023/04/30 00:33:58;;;;;;;13.63;8.45;;;10.10;1.00;;;;;;4998736;28;20042;-88
2023/04/30 00:36:47;;;;;;;11.15;8.25;;;10.00;1.00;;;;;;4986176;28;20060;-87
2023/04/30 00:39:35;;;;;;;14.23;8.45;;;10.00;1.00;;;;;;4984252;28;20053;-89
2023/04/30 00:42:24;;;;;;;12.98;8.70;;;9.90;1.00;;;;;;4996478;28;20390;-87
2023/04/30 00:45:11;;;;;;;11.98;8.75;;;9.70;12.70;;;;;;4994207;28;20054;-86
2023/04/30 00:47:59;;;;;;;13.80;8.88;;;9.70;99.90;;;;;;4977176;28;20109;-86
2023/04/30 00:50:46;;;;;;;12.13;9.35;;;9.70;99.90;;;;;;4997348;28;20260;-88
2023/04/30 00:53:35;;;;;;;16.33;8.80;;;9.70;99.90;;;;;;4995980;28;20085;-88
2023/04/30 00:56:25;;;;;;;13.02;9.10;;;9.60;99.90;;;;;;4993497;28;20117;-88
2023/04/30 00:59:15;;;;;;;13.90;8.75;;;9.50;99.90;;;;;;4997011;28;20046;-88
2023/04/30 01:02:02;;;;;;;14.88;8.30;;;9.50;1.00;;;;;;4984685;28;20047;-85
2023/04/30 01:04:50;;;;;;;11.40;8.10;;;9.40;1.00;;;;;;4993798;28;21167;-88
2023/04/30 01:07:43;;;;;;;12.90;8.93;;;9.50;99.90;;;;;;4982056;28;20050;-86
2023/04/30 01:10:41;;;;;;;13.20;8.80;;;9.50;99.90;;;;;;4993472;28;20051;-86
2023/04/30 01:13:52;;;;;;;12.30;8.88;;;9.40;99.90;;;;;;4986859;28;20094;-85
2023/04/30 01:16:47;;;;;;;15.32;9.40;;;9.50;99.90;;;;;;4994313;28;20481;-88
2023/04/30 01:19:37;;;;;;;17.00;9.25;;;9.50;1.00;;;;;;4988428;28;20450;-88
2023/04/30 01:22:27;;;;;;;14.20;9.02;;;9.60;1.00;;;;;;4994644;28;20050;-88
2023/04/30 01:25:49;;;;;;;16.05;9.70;;;9.60;1.00;;;;;;4997435;28;20069;-88
2023/04/30 01:28:38;;;;;;;12.18;8.73;;;9.60;1.00;;;;;;4935073;28;20070;-89
2023/04/30 01:31:27;;;;;;;14.07;9.10;;;9.60;1.00;;;;;;4992053;28;20043;-89
2023/04/30 01:34:14;;;;;;;14.57;10.07;;;9.50;1.00;;;;;;4990024;28;20049;-88
2023/04/30 01:37:01;;;;;;;13.45;9.35;;;9.50;1.00;;;;;;4996677;28;20121;-86
2023/04/30 01:40:09;;;;;;;14.82;10.55;;;9.50;24.10;;;;;;4988943;28;20042;-87
2023/04/30 01:43:32;;;;;;;13.85;9.82;;;9.60;28.30;;;;;;4993945;28;20042;-88
2023/04/30 01:46:26;;;;;;;13.60;9.45;;;9.60;1.00;;;;;;4953023;28;20047;-88
2023/04/30 01:49:41;;;;;;;17.02;9.95;;;9.60;1.00;;;;;;4997175;28;20082;-87
2023/04/30 01:52:40;;;;;;;15.05;10.13;;;9.60;1.00;;;;;;4984128;28;20062;-87
2023/04/30 01:55:47;;;;;;;15.52;10.20;;;9.60;1.00;;;;;;4977698;28;20088;-86
2023/04/30 01:58:38;;;;;;;16.40;10.10;;;9.50;1.00;;;;;;4983234;28;20125;-89
2023/04/30 02:01:29;;;;;;;13.27;9.80;;;9.50;1.00;;;;;;4991804;28;20058;-85
2023/04/30 02:04:19;;;;;;;13.23;9.73;;;9.50;1.00;;;;;;4990906;28;20791;-87
2023/04/30 02:07:06;;;;;;;15.93;9.80;;;9.50;1.00;;;;;;4983456;28;20050;-88
2023/04/30 02:09:56;;;;;;;14.63;9.57;;;9.50;1.00;;;;;;4994944;28;20050;-89
2023/04/30 02:12:44;;;;;;;14.82;9.90;;;9.50;1.00;;;;;;4979726;28;20065;-88
2023/04/30 02:15:31;;;;;;;12.65;9.35;;;9.50;1.00;;;;;;4978587;28;20064;-88
2023/04/30 02:18:18;;;;;;;14.23;10.38;;;9.50;1.00;;;;;;4998073;28;20086;-86
2023/04/30 02:21:06;;;;;;;15.77;9.57;;;9.40;1.00;;;;;;4991619;28;20053;-89
2023/04/30 02:23:53;;;;;;;17.08;10.13;;;9.40;1.00;;;;;;4979856;28;20092;-88
2023/04/30 02:26:40;;;;;;;17.77;10.80;;;9.50;1.00;;;;;;4995782;28;20489;-87
2023/04/30 02:29:28;;;;;;;15.50;11.02;;;9.40;1.00;;;;;;4980850;28;20137;-87
2023/04/30 02:32:15;;;;;;;13.88;10.63;;;9.50;1.00;;;;;;5004752;28;20050;-89
2023/04/30 02:35:04;;;;;;;14.75;11.10;;;9.40;1.00;;;;;;4988728;28;20058;-86
2023/04/30 02:37:51;;;;;;;17.05;10.40;;;9.50;1.00;;;;;;5006650;28;20058;-85
2023/04/30 02:40:42;;;;;;;16.05;10.95;;;9.40;1.00;;;;;;5000206;28;20458;-89
2023/04/30 02:43:30;;;;;;;17.20;12.32;;;9.40;1.00;;;;;;4988200;28;20046;-88
2023/04/30 02:46:19;;;;;;;21.02;12.63;;;9.40;1.00;;;;;;4995020;28;20133;-88
2023/04/30 02:49:09;;;;;;;18.17;12.50;;;9.30;99.90;;;;;;4999077;28;20105;-89
2023/04/30 02:51:56;;;;;;;18.23;11.93;;;9.30;99.90;;;;;;4987546;28;20436;-88
2023/04/30 02:54:43;;;;;;;18.73;12.82;;;9.20;99.90;;;;;;4994307;28;20058;-89
2023/04/30 02:57:31;;;;;;;19.40;12.70;;;9.20;1.00;;;;;;4982303;28;20047;-89
2023/04/30 03:00:18;;;;;;;20.85;13.45;;;9.20;1.00;;;;;;4996053;28;20046;-87
2023/04/30 03:03:08;;;;;;;19.77;13.80;;;9.20;1.00;;;;;;4994050;28;20042;-87
2023/04/30 03:05:58;;;;;;;20.35;14.02;;;9.10;1.00;;;;;;4990191;28;20428;-88
2023/04/30 03:08:45;;;;;;;20.70;14.27;;;9.10;1.00;;;;;;4993167;28;20048;-86
2023/04/30 03:11:36;;;;;;;28.42;15.40;;;9.10;1.00;;;;;;4990488;28;20046;-88
2023/04/30 03:14:23;;;;;;;20.27;13.60;;;9.20;1.00;;;;;;4993546;28;20382;-88
2023/04/30 03:17:13;;;;;;;26.05;14.50;;;9.20;1.00;;;;;;4979956;28;20046;-87
2023/04/30 03:20:01;;;;;;;20.73;13.95;;;9.20;1.00;;;;;;4991611;28;20069;-88
2023/04/30 03:22:48;;;;;;;23.08;15.38;;;9.10;1.00;;;;;;4986511;28;20097;-87
2023/04/30 03:25:35;;;;;;;21.30;13.95;;;9.10;1.00;;;;;;4992879;28;20046;-88
2023/04/30 03:28:25;;;;;;;25.33;15.38;;;9.10;1.00;;;;;;4993179;28;20510;-86
2023/04/30 03:31:17;;;;;;;22.73;15.57;;;9.00;1.00;;;;;;4996160;28;20057;-89
2023/04/30 03:34:04;;;;;;;23.17;14.50;;;9.00;1.00;;;;;;4996391;28;20043;-86
2023/04/30 03:36:51;;;;;;;24.73;15.88;;;9.00;1.00;;;;;;4991526;28;20052;-88
2023/04/30 03:39:40;;;;;;;22.95;14.90;;;8.90;42.50;;;;;;4997592;28;20205;-89
2023/04/30 03:42:27;;;;;;;25.58;16.13;;;8.90;99.90;;;;;;4982767;28;20193;-86
2023/04/30 03:45:15;;;;;;;25.40;16.13;;;8.90;99.90;;;;;;4988958;28;20126;-87
2023/04/30 03:48:04;;;;;;;22.42;15.07;;;8.90;99.90;;;;;;5010600;28;20469;-86
2023/04/30 03:50:53;;;;;;;24.08;16.60;;;8.90;99.90;;;;;;5010328;28;20065;-87
2023/04/30 03:53:41;;;;;;;27.00;17.08;;;8.90;99.90;;;;;;5004435;28;20035;-80
2023/04/30 03:56:28;;;;;;;29.90;17.48;;;8.80;1.00;;;;;;5016442;28;20042;-88
2023/04/30 03:59:15;;;;;;;26.05;16.48;;;8.80;33.60;;;;;;4998206;28;20039;-87
2023/04/30 04:02:03;;;;;;;28.70;16.00;;;8.80;99.90;;;;;;5011620;28;20073;-87
2023/04/30 04:04:50;;;;;;;25.45;16.73;;;8.80;99.90;;;;;;5003483;28;20060;-86
2023/04/30 04:07:38;;;;;;;26.52;16.98;;;8.80;99.90;;;;;;4983228;28;20350;-87
2023/04/30 04:10:25;;;;;;;27.08;17.00;;;8.80;99.90;;;;;;5005056;28;20149;-87
2023/04/30 04:13:12;;;;;;;26.30;16.73;;;8.80;99.90;;;;;;4978224;28;20051;-88
2023/04/30 04:15:59;;;;;;;27.17;16.45;;;8.80;99.90;;;;;;4989106;28;20051;-89
2023/04/30 04:18:47;;;;;;;27.70;17.65;;;8.70;99.90;;;;;;4972109;28;20042;-88
2023/04/30 04:21:40;;;;;;;26.55;16.83;;;8.70;99.90;;;;;;4994265;28;20068;-85
2023/04/30 04:24:29;;;;;;;26.10;16.58;;;8.70;99.90;;;;;;4997614;28;20046;-87
2023/04/30 04:27:16;;;;;;;24.90;17.15;;;8.60;1.00;;;;;;4980869;28;20042;-88
2023/04/30 04:30:04;;;;;;;28.80;17.88;;;8.60;1.00;;;;;;4989716;28;20110;-85
2023/04/30 04:32:53;;;;;;;25.70;17.83;;;8.60;1.00;;;;;;4996657;28;20061;-88
2023/04/30 04:35:41;;;;;;;24.58;16.40;;;8.70;1.00;;;;;;5001675;28;20046;-86
2023/04/30 04:38:28;;;;;;;25.50;16.85;;;8.70;1.00;;;;;;4994617;28;20074;-85
2023/04/30 04:41:15;;;;;;;23.23;16.45;;;8.70;1.00;;;;;;4990348;28;20080;-84
2023/04/30 04:44:05;;;;;;;27.63;16.35;;;8.70;99.90;;;;;;4978068;28;20383;-87
2023/04/30 04:46:55;;;;;;;23.70;15.23;;;8.70;99.90;;;;;;4995488;28;20053;-88
2023/04/30 04:49:42;;;;;;;26.15;16.05;;;8.70;99.90;;;;;;4987182;28;20116;-88
2023/04/30 04:52:30;;;;;;;23.60;16.45;;;8.80;99.90;;;;;;5011215;28;20050;-81
2023/04/30 04:55:19;;;;;;;24.35;15.52;;;8.70;25.20;;;;;;5004081;28;20126;-85
2023/04/30 04:58:07;;;;;;;23.42;15.43;;;8.80;1.00;;;;;;4997809;28;20085;-84
2023/04/30 05:00:54;;;;;;;23.05;16.20;;;8.80;1.00;;;;;;4986160;28;20078;-85
2023/04/30 05:03:41;;;;;;;27.27;16.60;;;8.90;99.90;;;;;;4991972;28;20065;-87
2023/04/30 05:06:29;;;;;;;25.42;16.90;;;8.90;99.90;;;;;;4994840;28;20512;-87
2023/04/30 05:09:19;;;;;;;23.15;15.73;;;9.00;99.90;;;;;;4993719;28;20046;-86
2023/04/30 05:12:08;;;;;;;21.38;15.05;;;9.10;99.90;;;;;;4987323;28;20144;-87
2023/04/30 05:14:55;;;;;;;22.77;15.20;;;9.10;1.00;;;;;;4990471;28;20061;-86
2023/04/30 05:17:42;;;;;;;23.85;15.77;;;9.20;1.00;;;;;;4996413;28;20050;-89
2023/04/30 05:20:30;;;;;;;23.73;14.75;;;9.30;99.90;;;;;;4982285;28;20363;-87
2023/04/30 05:23:17;;;;;;;22.60;14.57;;;9.30;99.90;;;;;;4998860;28;20050;-87
2023/04/30 05:26:04;;;;;;;21.05;14.32;;;9.30;22.50;;;;;;4998734;28;20050;-86
2023/04/30 05:28:52;;;;;;;19.17;14.13;;;9.40;1.00;;;;;;5007601;28;20046;-86
2023/04/30 05:31:39;;;;;;;18.98;13.45;;;9.50;99.90;;;;;;5008509;28;20050;-86
2023/04/30 05:34:26;;;;;;;22.02;14.88;;;9.60;99.90;;;;;;4998357;28;20093;-88
2023/04/30 05:37:16;;;;;;;21.27;14.85;;;9.60;99.90;;;;;;4984743;28;20176;-87
2023/04/30 05:40:05;;;;;;;18.55;13.27;;;9.60;99.90;;;;;;4994624;28;20093;-87
2023/04/30 05:42:52;;;;;;;19.27;13.48;;;9.60;91.40;;;;;;4983164;28;20070;-87
2023/04/30 05:45:39;;;;;;;21.33;14.30;;;9.70;22.40;;;;;;4981298;28;20047;-88
2023/04/30 05:48:27;;;;;;;20.63;13.20;;;9.80;1.00;;;;;;5004099;28;20042;-86
2023/04/30 05:51:16;;;;;;;19.63;13.93;;;9.90;1.00;;;;;;4984873;28;20119;-87
2023/04/30 05:54:03;;;;;;;19.08;13.35;;;9.90;1.00;;;;;;4981146;28;20054;-87
2023/04/30 05:56:53;;;;;;;17.88;13.05;;;10.00;99.90;;;;;;4994983;28;20054;-87
2023/04/30 05:59:40;;;;;;;29.30;13.63;;;10.10;99.90;;;;;;4996450;28;20402;-86
2023/04/30 06:02:27;;;;;;;18.33;12.85;;;10.10;99.90;;;;;;4999392;28;20165;-87
2023/04/30 06:05:14;;;;;;;18.83;13.60;;;10.30;99.90;;;;;;4999135;28;20046;-88
2023/04/30 06:08:02;;;;;;;17.92;12.95;;;10.40;99.90;;;;;;4981391;28;20039;-85
2023/04/30 06:10:50;;;;;;;15.73;12.07;;;10.50;76.30;;;;;;4994178;28;20050;-87
2023/04/30 06:13:40;;;;;;;19.17;12.82;;;10.60;1.00;;;;;;4999212;28;20046;-88
2023/04/30 06:16:28;;;;;;;18.08;12.70;;;10.60;1.00;;;;;;4990253;28;20050;-87
2023/04/30 06:19:15;;;;;;;19.77;12.82;;;10.60;1.00;;;;;;4975947;28;20443;-85
2023/04/30 06:22:05;;;;;;;18.58;12.63;;;10.70;1.00;;;;;;4991880;28;20050;-87
2023/04/30 06:24:56;;;;;;;18.85;13.30;;;10.70;1.00;;;;;;4999892;28;20458;-83
2023/04/30 06:27:43;;;;;;;15.57;11.82;;;10.70;99.90;;;;;;4993740;28;20042;-87
2023/04/30 06:30:31;;;;;;;19.17;12.68;;;10.80;99.90;;;;;;4995797;28;20042;-85
2023/04/30 06:33:18;;;;;;;18.52;12.10;;;10.90;99.90;;;;;;4989542;28;20085;-85
2023/04/30 06:36:06;;;;;;;16.38;12.23;;;10.90;99.90;;;;;;4995477;28;20136;-86
2023/04/30 06:38:53;;;;;;;17.17;12.88;;;10.90;99.90;;;;;;4981921;28;20046;-87
2023/04/30 06:41:43;;;;;;;18.05;12.18;;;11.10;99.90;;;;;;4992608;28;20062;-86
2023/04/30 06:44:35;;;;;;;15.60;11.35;;;11.20;99.90;;;;;;4993850;28;20069;-88
2023/04/30 06:47:24;;;;;;;15.45;11.52;;;11.30;99.90;;;;;;4993022;28;20042;-87
2023/04/30 06:50:14;;;;;;;16.40;11.48;;;11.50;99.90;;;;;;4981257;28;20125;-88
2023/04/30 06:53:01;;;;;;;15.27;11.45;;;11.40;99.90;;;;;;4995455;28;20061;-86
2023/04/30 06:55:52;;;;;;;14.63;11.27;;;11.60;99.90;;;;;;4977970;28;20070;-89
2023/04/30 06:58:41;;;;;;;15.25;11.40;;;11.80;99.90;;;;;;4979035;28;20058;-87
2023/04/30 07:01:28;;;;;;;15.70;11.35;;;11.90;99.90;;;;;;4980670;28;20367;-88
2023/04/30 07:04:18;;;;;;;17.75;11.35;;;11.90;99.90;;;;;;4991796;28;20385;-85
2023/04/30 07:07:06;;;;;;;15.02;11.55;;;12.00;84.30;;;;;;4987613;28;20130;-82
2023/04/30 07:09:53;;;;;;;14.43;10.90;;;12.00;32.50;;;;;;4994405;28;20050;-88
2023/04/30 07:12:41;;;;;;;13.20;10.63;;;12.20;5.10;;;;;;4971501;28;20038;-88
2023/04/30 07:15:29;;;;;;;14.63;9.70;;;12.20;1.00;;;;;;4991052;28;20053;-88
2023/04/30 07:18:16;;;;;;;14.70;9.52;;;12.40;1.00;;;;;;4993831;28;20078;-86
2023/04/30 07:21:03;;;;;;;14.70;10.20;;;12.60;1.00;;;;;;4995772;28;20069;-86
2023/04/30 07:23:50;;;;;;;11.98;8.85;;;12.80;1.00;;;;;;4958657;28;20050;-86
2023/04/30 07:26:37;;;;;;;11.02;9.02;;;13.20;1.00;;;;;;4986567;28;20054;-85
2023/04/30 07:29:25;;;;;;;13.50;9.65;;;13.30;1.00;;;;;;4998643;28;20047;-87
2023/04/30 07:32:15;;;;;;;12.43;9.98;;;13.00;99.90;;;;;;4992573;28;20105;-86
2023/04/30 07:35:03;;;;;;;11.90;8.57;;;13.30;99.90;;;;;;4994754;28;20058;-89
2023/04/30 07:37:50;;;;;;;11.52;8.63;;;13.70;99.90;;;;;;4996648;28;20060;-86
2023/04/30 07:40:40;;;;;;;10.10;8.43;;;14.10;99.90;;;;;;5000385;28;20055;-87
2023/04/30 07:43:32;;;;;;;10.32;8.90;;;14.30;99.90;;;;;;5002408;28;20050;-86
2023/04/30 07:46:19;;;;;;;9.03;7.40;;;14.50;99.90;;;;;;4985030;28;20046;-89
2023/04/30 07:49:08;;;;;;;11.43;7.20;;;14.80;99.90;;;;;;4984748;28;20072;-87
2023/04/30 07:51:59;;;;;;;11.52;7.22;;;15.40;99.90;;;;;;5004230;28;20050;-86
2023/04/30 07:54:47;;;;;;;10.38;8.40;;;15.70;99.90;;;;;;4997470;28;20107;-89
2023/04/30 07:57:35;;;;;;;9.82;7.32;;;15.50;99.90;;;;;;4994720;28;20082;-87
2023/04/30 08:00:25;;;;;;;12.52;6.80;;;15.70;99.90;;;;;;4991609;28;20054;-85
2023/04/30 08:03:12;;;;;;;8.43;7.22;;;15.90;99.90;;;;;;4993875;28;20072;-87
2023/04/30 08:06:00;;;;;;;8.90;6.25;;;16.40;99.90;;;;;;4993905;28;20062;-89
2023/04/30 08:08:47;;;;;;;8.65;6.35;;;17.20;99.90;;;;;;4999879;28;20406;-87
2023/04/30 08:11:42;;;;;;;6.70;5.88;;;16.90;99.90;;;;;;4988286;28;20050;-87
2023/04/30 08:14:30;;;;;;;7.05;6.32;;;16.70;99.90;;;;;;4991736;28;20055;-88
2023/04/30 08:17:17;;;;;;;8.38;6.30;;;16.00;99.90;;;;;;4991142;28;20117;-85
2023/04/30 08:20:05;;;;;;;8.80;6.45;;;15.90;99.90;;;;;;4996381;28;20363;-88
2023/04/30 08:22:52;;;;;;;9.57;6.43;;;15.70;99.90;;;;;;5010169;28;20129;-84
2023/04/30 08:25:40;;;;;;;7.00;6.05;;;15.80;99.90;;;;;;5003419;28;20050;-89
2023/04/30 08:28:27;;;;;;;7.50;6.32;;;15.40;99.90;;;;;;5005754;28;20058;-84
2023/04/30 08:31:17;;;;;;;7.80;6.55;;;15.30;99.90;;;;;;5011224;28;20050;-88
2023/04/30 08:34:04;;;;;;;7.18;6.00;;;14.70;99.90;;;;;;5008731;28;20069;-87
2023/04/30 08:36:52;;;;;;;12.75;8.40;;;14.90;99.90;;;;;;4999269;28;20061;-88
2023/04/30 08:39:39;;;;;;;11.23;8.00;;;14.90;99.90;;;;;;4996719;28;20126;-86
2023/04/30 08:42:42;;;;;;;6.85;5.32;;;14.50;99.90;;;;;;4995171;28;20050;-88
2023/04/30 08:45:30;;;;;;;;;;;15.10;99.90;;;;;;4996086;28;20057;-84
2023/04/30 08:48:22;;;;;;;6.90;5.40;;;15.90;99.90;;;;;;4996460;28;20240;-85
2023/04/30 08:51:10;;;;;;;8.05;5.85;;;16.30;99.90;;;;;;4996055;28;20046;-85
2023/04/30 08:53:58;;;;;;;6.30;5.20;;;16.00;99.90;;;;;;5008094;28;20104;-87
2023/04/30 08:56:45;;;;;;;9.00;5.82;;;15.70;99.90;;;;;;4995564;28;20061;-87
2023/04/30 08:59:32;;;;;;;6.97;5.40;;;15.90;99.90;;;;;;4998180;28;20504;-85
2023/04/30 09:02:20;;;;;;;7.13;6.43;;;15.20;99.90;;;;;;5001750;28;20050;-87
2023/04/30 09:05:11;;;;;;;7.25;5.57;;;15.00;99.90;;;;;;4999150;28;20188;-89
2023/04/30 09:07:58;;;;;;;8.88;5.85;;;14.70;99.90;;;;;;4989004;28;20130;-87
2023/04/30 09:10:50;;;;;;;6.97;5.40;;;14.70;99.90;;;;;;4991997;28;20451;-88
2023/04/30 09:13:40;;;;;;;7.07;5.18;;;15.10;99.90;;;;;;4988817;28;20073;-85
2023/04/30 09:16:43;;;;;;;7.88;5.07;;;15.00;99.90;;;;;;4992273;28;20053;-87
2023/04/30 09:19:31;;;;;;;7.80;6.20;;;15.10;99.90;;;;;;4997987;28;20126;-88
2023/04/30 09:22:22;;;;;;;5.15;4.63;;;15.60;99.90;;;;;;4997853;28;20054;-87
2023/04/30 09:25:10;;;;;;;6.55;4.32;;;16.60;99.90;;;;;;5002392;28;20043;-86
2023/04/30 09:28:08;;;;;;;10.48;3.60;;;16.30;99.90;;;;;;4995459;28;20061;-84
2023/04/30 09:30:56;;;;;;;6.35;3.20;;;15.90;94.00;;;;;;4995421;28;20038;-90
2023/04/30 09:33:46;;;;;;;5.13;4.18;;;15.70;93.90;;;;;;4975283;28;20050;-85
2023/04/30 09:36:36;;;;;;;4.55;4.05;;;15.60;95.40;;;;;;4981710;28;20080;-87
2023/04/30 09:39:23;;;;;;;8.45;4.47;;;15.80;94.50;;;;;;4995953;28;20050;-88
2023/04/30 09:42:13;;;;;;;5.25;4.45;;;15.60;95.10;;;;;;4981296;28;20054;-87
2023/04/30 09:45:00;;;;;;;7.43;4.63;;;15.80;97.70;;;;;;4996455;28;20042;-89
2023/04/30 09:47:47;;;;;;;5.68;4.68;;;15.50;91.40;;;;;;4993281;28;20046;-86
2023/04/30 09:50:39;;;;;;;5.50;4.38;;;15.20;92.20;;;;;;4993344;28;20518;-87
2023/04/30 09:53:29;;;;;;;5.78;4.68;;;15.10;94.00;;;;;;4972573;28;20132;-88
2023/04/30 09:56:23;;;;;;;5.15;4.38;;;14.90;91.10;;;;;;5000026;28;20034;-89
2023/04/30 09:59:12;;;;;;;6.72;3.80;;;14.70;95.30;;;;;;4976930;28;20057;-88
2023/04/30 10:02:04;;;;;;;4.50;4.00;;;14.70;94.50;;;;;;4994115;28;20121;-87
2023/04/30 10:04:56;;;;;;;4.05;3.17;;;15.20;92.70;;;;;;4989396;28;20064;-89
2023/04/30 10:07:45;;;;;;;5.45;4.57;;;15.60;89.40;;;;;;4992626;28;20136;-86
2023/04/30 10:10:35;;;;;;;4.35;3.92;;;15.80;75.90;;;;;;4975712;28;20046;-88
2023/04/30 10:13:25;;;;;;;4.05;3.28;;;15.70;62.70;;;;;;4996265;28;20140;-87
2023/04/30 10:16:46;;;;;;;4.70;3.65;;;15.40;57.90;;;;;;4981217;28;20058;-87
2023/04/30 10:19:38;;;;;;;6.30;4.25;;;15.10;58.10;;;;;;4976945;28;20061;-86
2023/04/30 10:22:27;;;;;;;4.85;3.85;;;14.90;62.00;;;;;;4995037;28;20126;-87
2023/04/30 10:25:15;;;;;;;4.72;3.83;;;14.80;60.20;;;;;;5014220;28;20062;-86
2023/04/30 10:28:06;;;;;;;6.35;3.80;;;15.00;72.90;;;;;;5024382;28;20105;-83
2023/04/30 10:30:55;;;;;;;4.10;3.60;;;15.40;67.50;;;;;;5187956;22;20049;-86
2023/04/30 10:33:48;;;;;;;5.10;3.70;;;15.80;59.70;;;;;;5047014;28;20169;-88
2023/04/30 10:36:41;;;;;;;4.93;4.10;;;16.10;61.70;;;;;;5043948;28;20376;-87
2023/04/30 10:39:31;;;;;;;4.05;3.45;;;16.10;45.80;;;;;;5034416;28;20456;-87
2023/04/30 10:42:21;;;;;;;4.60;4.20;;;16.20;48.10;;;;;;5029542;28;20041;-88
2023/04/30 10:45:11;;;;;;;4.68;4.18;;;16.20;45.60;;;;;;5031939;28;20050;-86
2023/04/30 10:48:02;;;;;;;5.18;3.63;;;15.90;47.10;;;;;;5028315;28;20101;-87
2023/04/30 10:50:53;;;;;;;5.78;3.97;;;16.00;47.20;;;;;;5028421;28;20043;-88
2023/04/30 10:53:44;;;;;;;5.57;4.50;;;15.90;41.30;;;;;;5020851;28;20387;-86
2023/04/30 10:56:32;;;;;;;5.32;4.03;;;16.10;41.30;;;;;;5036250;28;20374;-87
2023/04/30 10:59:19;;;;;;;5.68;4.45;;;16.20;37.50;;;;;;5016144;28;20045;-88
2023/04/30 11:02:10;;;;;;;5.05;3.50;;;16.40;28.70;;;;;;5018290;28;20056;-90
2023/04/30 11:05:08;;;;;;;4.57;3.47;;;16.70;35.40;;;;;;5027557;28;20139;-88
2023/04/30 11:07:56;;;;;;;3.92;3.45;;;16.70;41.10;;;;;;5033859;28;20049;-87
2023/04/30 11:11:03;;;;;;;3.65;3.35;;;16.90;26.30;;;;;;5037530;28;20076;-87
2023/04/30 11:14:00;;;;;;;3.70;3.40;;;17.10;22.90;;;;;;5041301;28;20041;-89
2023/04/30 11:16:49;;;;;;;4.90;3.25;;;17.10;20.70;;;;;;5026097;28;20087;-87
2023/04/30 11:19:45;;;;;;;4.43;3.95;;;16.90;18.10;;;;;;5033416;28;20381;-85
2023/04/30 11:22:35;;;;;;;5.53;3.50;;;16.70;17.40;;;;;;5036628;28;20103;-88
2023/04/30 11:25:22;;;;;;;4.78;3.08;;;16.40;16.90;;;;;;5038857;28;20483;-85
2023/04/30 11:28:24;;;;;;;4.18;2.88;;;16.00;11.30;;;;;;5046266;28;20052;-85
2023/04/30 11:31:13;;;;;;;3.23;2.93;;;15.80;11.10;;;;;;5027977;28;20072;-87
2023/04/30 11:34:02;;;;;;;3.67;3.30;;;15.70;12.70;;;;;;5039043;28;20284;-88
2023/04/30 11:36:50;;;;;;;4.18;3.13;;;15.80;12.50;;;;;;5029411;28;20049;-88
2023/04/30 11:39:38;;;;;;;4.82;3.53;;;15.90;12.20;;;;;;5030411;28;20061;-86
2023/04/30 11:42:25;;;;;;;5.57;3.17;;;15.60;10.80;;;;;;5016713;28;20467;-86
2023/04/30 11:45:16;;;;;;;3.97;3.38;;;15.80;12.30;;;;;;5032412;28;20535;-88
2023/04/30 11:48:04;;;;;;;3.78;3.20;;;15.80;9.90;;;;;;5022773;28;20049;-87
2023/04/30 11:50:51;;;;;;;2.90;2.60;;;15.80;19.90;;;;;;5038395;28;20533;-87
2023/04/30 11:53:38;;;;;;;3.10;2.80;;;16.00;9.00;;;;;;5035875;28;20053;-85
2023/04/30 11:56:26;;;;;;;3.75;3.35;;;16.30;6.40;;;;;;5029966;28;20379;-87
2023/04/30 11:59:18;;;;;;;5.28;3.00;;;16.30;6.80;;;;;;5032912;28;20056;-86
2023/04/30 12:02:06;;;;;;;3.22;2.83;;;16.20;8.10;;;;;;5027319;28;20084;-88
2023/04/30 12:04:53;;;;;;;5.57;3.20;;;16.10;8.20;;;;;;5034522;28;20435;-87
2023/04/30 12:07:53;;;;;;;3.45;2.97;;;16.20;5.50;;;;;;5029371;28;20042;-87
2023/04/30 12:10:40;;;;;;;3.40;3.10;;;16.20;5.80;;;;;;5040390;28;20076;-86
2023/04/30 12:13:30;;;;;;;3.30;2.97;;;16.20;5.30;;;;;;5020296;28;20049;-88
2023/04/30 12:16:20;;;;;;;6.80;2.80;;;16.50;2.10;;;;;;5035578;28;20152;-88
2023/04/30 12:19:08;;;;;;;3.67;2.63;;;17.20;4.50;;;;;;5034438;28;20045;-85
2023/04/30 12:21:58;;;;;;;4.90;3.13;;;17.90;5.00;;;;;;5040360;28;20056;-87
2023/04/30 12:24:46;;;;;;;6.15;3.03;;;18.30;1.00;;;;;;5025567;28;20514;-89
2023/04/30 12:27:35;;;;;;;3.55;2.90;;;17.90;1.00;;;;;;5041991;28;20059;-87
2023/04/30 12:30:25;;;;;;;4.45;3.40;;;17.90;1.00;;;;;;5033331;28;20044;-88
2023/04/30 12:33:17;;;;;;;4.47;3.40;;;17.70;1.00;;;;;;5035459;28;20068;-87
2023/04/30 12:36:09;;;;;;;6.55;3.63;;;17.30;1.00;;;;;;5017242;28;20234;-87
2023/04/30 12:39:10;;;;;;;;;;;17.60;1.00;;;;;;5019717;28;20052;-88
2023/04/30 12:41:59;;;;;;;2.85;2.42;;;18.30;1.00;;;;;;5040179;28;19920;-89
2023/04/30 12:44:49;;;;;;;8.68;2.72;;;19.20;1.00;;;;;;5025261;28;20107;-88
2023/04/30 12:47:40;;;;;;;3.58;3.00;;;18.80;1.00;;;;;;5036838;28;20056;-89
2023/04/30 12:50:34;;;;;;;2.95;2.65;;;18.10;1.00;;;;;;5025191;28;20045;-90
2023/04/30 12:53:22;;;;;;;3.38;2.55;;;18.40;1.00;;;;;;5030083;28;20048;-86
2023/04/30 12:56:16;;;;;;;4.97;3.05;;;18.20;1.00;;;;;;5034482;28;20049;-88
2023/04/30 12:59:15;;;;;;;5.30;3.15;;;18.00;1.00;;;;;;5041301;28;20053;-87
2023/04/30 13:02:11;;;;;;;3.78;3.10;;;17.50;1.00;;;;;;5017315;28;20049;-89
2023/04/30 13:04:59;;;;;;;3.40;3.10;;;17.50;1.00;;;;;;5038594;28;20071;-88
2023/04/30 13:07:47;;;;;;;3.08;2.60;;;18.80;1.00;;;;;;5048774;28;20072;-86
2023/04/30 13:10:34;;;;;;;4.13;2.53;;;19.80;1.00;;;;;;5031850;28;20053;-83
2023/04/30 13:13:21;;;;;;;2.58;2.15;;;20.50;1.00;;;;;;5042902;28;20045;-89
2023/04/30 13:16:09;;;;;;;3.05;2.15;;;20.60;1.00;;;;;;5042775;28;20067;-86
2023/04/30 13:18:56;;;;;;;4.13;2.30;;;21.20;1.00;;;;;;5041454;28;20053;-87
2023/04/30 13:21:43;;;;;;;3.63;2.53;;;20.70;1.00;;;;;;5033695;28;20471;-88
2023/04/30 13:24:30;;;;;;;2.95;2.25;;;19.70;1.00;;;;;;5032202;28;20106;-86
2023/04/30 13:27:18;;;;;;;3.20;2.90;;;19.00;1.00;;;;;;5048323;28;20073;-87
2023/04/30 13:30:06;;;;;;;3.88;2.80;;;18.70;1.00;;;;;;5030543;28;20053;-87
2023/04/30 13:32:53;;;;;;;4.13;2.83;;;20.30;1.00;;;;;;5030330;28;20049;-85
2023/04/30 13:35:40;;;;;;;4.95;2.67;;;20.80;1.00;;;;;;5036648;28;20458;-86
2023/04/30 13:38:27;;;;;;;4.07;2.85;;;20.30;1.00;;;;;;5027789;28;20072;-86
2023/04/30 13:41:15;;;;;;;4.95;3.10;;;20.20;1.00;;;;;;5034274;28;20049;-86
2023/04/30 13:44:04;;;;;;;29.88;5.93;;;20.50;1.00;;;;;;5032703;28;20045;-87
2023/04/30 13:46:51;;;;;;;14.15;4.13;;;20.80;1.00;;;;;;5041535;28;20554;-87
2023/04/30 13:49:39;;;;;;;12.70;3.10;;;20.60;1.00;;;;;;5023840;28;20041;-89
2023/04/30 13:52:26;;;;;;;7.72;3.00;;;19.60;1.00;;;;;;5034808;28;20404;-89
2023/04/30 13:55:14;;;;;;;6.07;2.92;;;18.80;1.00;;;;;;5008661;28;20049;-86
2023/04/30 13:58:02;;;;;;;4.68;2.58;;;18.30;1.00;;;;;;5031954;28;20041;-86
2023/04/30 14:00:50;;;;;;;4.03;3.22;;;17.80;1.00;;;;;;5043349;28;20049;-85
2023/04/30 14:03:37;;;;;;;3.67;2.80;;;17.40;1.00;;;;;;5040475;28;20475;-89
2023/04/30 14:06:28;;;;;;;2.88;2.60;;;17.10;1.00;;;;;;5025023;28;20527;-87
2023/04/30 14:09:16;;;;;;;4.65;2.55;;;17.10;1.00;;;;;;5032932;28;20116;-88
2023/04/30 14:12:04;;;;;;;3.88;3.20;;;17.10;1.00;;;;;;5033094;28;20120;-89
2023/04/30 14:14:54;;;;;;;3.55;2.53;;;17.50;1.00;;;;;;5033175;28;20195;-87
2023/04/30 14:17:42;;;;;;;4.72;2.70;;;17.80;1.00;;;;;;5026947;28;20457;-89
2023/04/30 14:20:31;;;;;;;4.88;3.08;;;18.70;1.00;;;;;;5039409;28;20048;-88
2023/04/30 14:23:18;;;;;;;4.60;3.05;;;18.20;1.00;;;;;;5038900;28;20360;-85
2023/04/30 14:26:06;;;;;;;2.55;2.35;;;17.70;1.00;;;;;;5025020;28;20041;-85
2023/04/30 14:28:55;;;;;;;4.95;2.92;;;17.60;1.00;;;;;;5050833;28;20034;-85
2023/04/30 14:31:43;;;;;;;4.40;2.30;;;18.00;1.00;;;;;;5015930;28;20068;-89
2023/04/30 14:34:31;;;;;;;4.35;2.63;;;18.50;1.00;;;;;;5035208;28;20057;-87
2023/04/30 14:37:18;;;;;;;4.68;2.80;;;19.20;1.00;;;;;;5036411;28;20056;-86
2023/04/30 14:40:07;;;;;;;2.65;2.45;;;19.60;1.00;;;;;;5027264;28;20041;-86